sensor_id;sensor_type;location;lat;lon;timestamp;pressure;altitude;pressure_sealevel;temperature;humidity
2785;BME280;57944;48.722;9.316;2024-02-21T00:01:18;99094.78;;;4.50;100.00
2785;BME280;57944;48.722;9.316;2024-02-21T00:03:49;99096.69;;;4.36;100.00
2785;BME280;57944;48.722;9.316;2024-02-21T00:06:19;99093.06;;;4.50;100.00
2785;BME280;57944;48.722;9.316;2024-02-21T00:08:50;99092.81;;;4.53;100.00
2785;BME280;57944;48.722;9.316;2024-02-21T00:11:21;99091.75;;;4.56;100.00
2785;BME280;57944;48.722;9.316;2024-02-21T00:13:55;99091.94;;;4.43;100.00
2785;BME280;57944;48.722;9.316;2024-02-21T00:16:26;99089.66;;;4.40;100.00
2785;BME280;57944;48.722;9.316;2024-02-21T00:18:56;99087.72;;;4.43;100.00
2785;BME280;57944;48.722;9.316;2024-02-21T00:21:27;99088.16;;;4.48;100.00
2785;BME280;57944;48.722;9.316;2024-02-21T00:23:58;99083.91;;;4.49;100.00
2785;BME280;57944;48.722;9.316;2024-02-21T00:26:28;99083.31;;;4.45;100.00
2785;BME280;57944;48.722;9.316;2024-02-21T00:29:01;99080.56;;;4.48;100.00
2785;BME280;57944;48.722;9.316;2024-02-21T00:31:35;99068.06;;;4.47;100.00
2785;BME280;57944;48.722;9.316;2024-02-21T00:34:06;99062.47;;;4.43;100.00
2785;BME280;57944;48.722;9.316;2024-02-21T00:36:38;99058.34;;;4.42;100.00
2785;BME280;57944;48.722;9.316;2024-02-21T00:39:08;99052.41;;;4.53;100.00
2785;BME280;57944;48.722;9.316;2024-02-21T00:41:39;99053.69;;;4.38;100.00
2785;BME280;57944;48.722;9.316;2024-02-21T00:44:12;99060.06;;;4.42;100.00
2785;BME280;57944;48.722;9.316;2024-02-21T00:46:43;99054.41;;;4.50;100.00
2785;BME280;57944;48.722;9.316;2024-02-21T00:49:14;99053.72;;;4.47;100.00
2785;BME280;57944;48.722;9.316;2024-02-21T00:51:44;99054.31;;;4.61;100.00
2785;BME280;57944;48.722;9.316;2024-02-21T00:54:15;99044.50;;;4.67;100.00
2785;BME280;57944;48.722;9.316;2024-02-21T00:56:46;99044.91;;;4.73;100.00
2785;BME280;57944;48.722;9.316;2024-02-21T00:59:19;99049.19;;;4.51;100.00
2785;BME280;57944;48.722;9.316;2024-02-21T01:01:50;99043.28;;;4.62;100.00
2785;BME280;57944;48.722;9.316;2024-02-21T01:04:20;99036.28;;;4.75;100.00
2785;BME280;57944;48.722;9.316;2024-02-21T01:06:52;99039.09;;;4.82;100.00
2785;BME280;57944;48.722;9.316;2024-02-21T01:09:23;99034.97;;;4.81;100.00
2785;BME280;57944;48.722;9.316;2024-02-21T01:11:53;99035.91;;;4.80;100.00
2785;BME280;57944;48.722;9.316;2024-02-21T01:14:26;99040.84;;;4.91;100.00
2785;BME280;57944;48.722;9.316;2024-02-21T01:16:57;99038.75;;;4.96;100.00
2785;BME280;57944;48.722;9.316;2024-02-21T01:19:28;99029.28;;;4.98;100.00
2785;BME280;57944;48.722;9.316;2024-02-21T01:21:58;99020.13;;;4.97;100.00
2785;BME280;57944;48.722;9.316;2024-02-21T01:24:29;99017.06;;;5.03;100.00
2785;BME280;57944;48.722;9.316;2024-02-21T01:26:59;99004.16;;;5.06;100.00
2785;BME280;57944;48.722;9.316;2024-02-21T01:29:32;98995.53;;;5.09;100.00
2785;BME280;57944;48.722;9.316;2024-02-21T01:32:03;98989.81;;;5.07;100.00
2785;BME280;57944;48.722;9.316;2024-02-21T01:34:34;98994.75;;;5.08;100.00
2785;BME280;57944;48.722;9.316;2024-02-21T01:37:05;98990.63;;;5.17;100.00
2785;BME280;57944;48.722;9.316;2024-02-21T01:39:38;98986.09;;;5.21;100.00
2785;BME280;57944;48.722;9.316;2024-02-21T01:42:08;98979.97;;;5.23;100.00
2785;BME280;57944;48.722;9.316;2024-02-21T01:44:41;98970.56;;;5.15;100.00
2785;BME280;57944;48.722;9.316;2024-02-21T01:47:12;98972.66;;;5.01;100.00
2785;BME280;57944;48.722;9.316;2024-02-21T01:49:44;98967.97;;;4.86;100.00
2785;BME280;57944;48.722;9.316;2024-02-21T01:52:15;98959.09;;;4.82;100.00
2785;BME280;57944;48.722;9.316;2024-02-21T01:54:47;98964.25;;;4.71;100.00
2785;BME280;57944;48.722;9.316;2024-02-21T01:57:18;98957.31;;;4.63;100.00
2785;BME280;57944;48.722;9.316;2024-02-21T01:59:51;98954.09;;;4.52;100.00
2785;BME280;57944;48.722;9.316;2024-02-21T02:02:22;98946.66;;;4.50;100.00
2785;BME280;57944;48.722;9.316;2024-02-21T02:04:53;98949.59;;;4.55;100.00
2785;BME280;57944;48.722;9.316;2024-02-21T02:07:25;98945.59;;;4.53;100.00
2785;BME280;57944;48.722;9.316;2024-02-21T02:09:55;98932.47;;;4.68;100.00
2785;BME280;57944;48.722;9.316;2024-02-21T02:12:26;98930.22;;;4.65;100.00
2785;BME280;57944;48.722;9.316;2024-02-21T02:15:03;98933.53;;;4.76;100.00
2785;BME280;57944;48.722;9.316;2024-02-21T02:17:34;98928.25;;;4.88;100.00
2785;BME280;57944;48.722;9.316;2024-02-21T02:20:06;98934.50;;;4.94;100.00
2785;BME280;57944;48.722;9.316;2024-02-21T02:22:38;98927.31;;;4.99;100.00
2785;BME280;57944;48.722;9.316;2024-02-21T02:25:12;98922.53;;;5.06;100.00
2785;BME280;57944;48.722;9.316;2024-02-21T02:27:43;98915.59;;;5.18;100.00
2785;BME280;57944;48.722;9.316;2024-02-21T02:30:14;98916.16;;;5.21;100.00
2785;BME280;57944;48.722;9.316;2024-02-21T02:32:45;98911.09;;;5.11;100.00
2785;BME280;57944;48.722;9.316;2024-02-21T02:35:16;98903.91;;;5.07;100.00
2785;BME280;57944;48.722;9.316;2024-02-21T02:37:49;98905.50;;;4.98;100.00
2785;BME280;57944;48.722;9.316;2024-02-21T02:40:23;98900.47;;;5.08;100.00
2785;BME280;57944;48.722;9.316;2024-02-21T02:42:53;98898.59;;;5.10;100.00
2785;BME280;57944;48.722;9.316;2024-02-21T02:45:26;98895.94;;;5.02;100.00
2785;BME280;57944;48.722;9.316;2024-02-21T02:47:57;98896.06;;;5.00;100.00
2785;BME280;57944;48.722;9.316;2024-02-21T02:50:28;98893.16;;;5.05;100.00
2785;BME280;57944;48.722;9.316;2024-02-21T02:52:58;98889.81;;;5.14;100.00
2785;BME280;57944;48.722;9.316;2024-02-21T02:55:32;98888.22;;;5.23;100.00
2785;BME280;57944;48.722;9.316;2024-02-21T02:58:03;98885.53;;;5.34;100.00
2785;BME280;57944;48.722;9.316;2024-02-21T03:00:33;98881.53;;;5.41;100.00
2785;BME280;57944;48.722;9.316;2024-02-21T03:03:06;98878.19;;;5.50;100.00
2785;BME280;57944;48.722;9.316;2024-02-21T03:05:36;98867.91;;;5.62;100.00
2785;BME280;57944;48.722;9.316;2024-02-21T03:08:07;98859.84;;;5.76;100.00
2785;BME280;57944;48.722;9.316;2024-02-21T03:10:40;98854.53;;;5.79;100.00
2785;BME280;57944;48.722;9.316;2024-02-21T03:13:12;98850.81;;;5.73;100.00
2785;BME280;57944;48.722;9.316;2024-02-21T03:15:42;98852.94;;;5.78;100.00
2785;BME280;57944;48.722;9.316;2024-02-21T03:18:13;98841.59;;;5.82;100.00
2785;BME280;57944;48.722;9.316;2024-02-21T03:20:44;98837.97;;;5.85;100.00
2785;BME280;57944;48.722;9.316;2024-02-21T03:23:14;98840.75;;;5.91;100.00
2785;BME280;57944;48.722;9.316;2024-02-21T03:25:48;98831.84;;;5.87;100.00
2785;BME280;57944;48.722;9.316;2024-02-21T03:28:19;98832.69;;;5.78;100.00
2785;BME280;57944;48.722;9.316;2024-02-21T03:30:49;98829.25;;;5.32;100.00
2785;BME280;57944;48.722;9.316;2024-02-21T03:33:20;98832.25;;;5.08;100.00
2785;BME280;57944;48.722;9.316;2024-02-21T03:35:51;98835.19;;;4.93;100.00
2785;BME280;57944;48.722;9.316;2024-02-21T03:38:21;98842.34;;;4.79;100.00
2785;BME280;57944;48.722;9.316;2024-02-21T03:40:55;98854.34;;;4.57;100.00
2785;BME280;57944;48.722;9.316;2024-02-21T03:43:25;98851.81;;;4.67;100.00
2785;BME280;57944;48.722;9.316;2024-02-21T03:45:56;98844.50;;;4.74;100.00
2785;BME280;57944;48.722;9.316;2024-02-21T03:48:26;98835.44;;;4.81;100.00
2785;BME280;57944;48.722;9.316;2024-02-21T03:50:57;98821.38;;;4.78;100.00
2785;BME280;57944;48.722;9.316;2024-02-21T03:53:28;98814.84;;;4.85;100.00
2785;BME280;57944;48.722;9.316;2024-02-21T03:56:01;98812.72;;;4.81;100.00
2785;BME280;57944;48.722;9.316;2024-02-21T03:58:33;98818.59;;;4.72;100.00
2785;BME280;57944;48.722;9.316;2024-02-21T04:01:04;98823.63;;;4.33;100.00
2785;BME280;57944;48.722;9.316;2024-02-21T04:03:35;98829.34;;;4.35;100.00
2785;BME280;57944;48.722;9.316;2024-02-21T04:06:05;98824.53;;;4.32;100.00
2785;BME280;57944;48.722;9.316;2024-02-21T04:08:36;98819.34;;;4.33;100.00
2785;BME280;57944;48.722;9.316;2024-02-21T04:11:09;98810.19;;;4.42;100.00
2785;BME280;57944;48.722;9.316;2024-02-21T04:13:40;98805.28;;;4.69;100.00
2785;BME280;57944;48.722;9.316;2024-02-21T04:16:11;98802.78;;;4.79;100.00
2785;BME280;57944;48.722;9.316;2024-02-21T04:18:41;98802.34;;;4.84;100.00
2785;BME280;57944;48.722;9.316;2024-02-21T04:21:16;98801.59;;;4.74;100.00
2785;BME280;57944;48.722;9.316;2024-02-21T04:23:47;98789.34;;;4.69;100.00
2785;BME280;57944;48.722;9.316;2024-02-21T04:26:20;98781.66;;;4.61;100.00
2785;BME280;57944;48.722;9.316;2024-02-21T04:28:51;98776.06;;;4.38;100.00
2785;BME280;57944;48.722;9.316;2024-02-21T04:31:21;98763.03;;;4.23;100.00
2785;BME280;57944;48.722;9.316;2024-02-21T04:33:52;98758.13;;;4.21;100.00
2785;BME280;57944;48.722;9.316;2024-02-21T04:36:23;98751.75;;;4.17;100.00
2785;BME280;57944;48.722;9.316;2024-02-21T04:38:54;98747.88;;;4.03;100.00
2785;BME280;57944;48.722;9.316;2024-02-21T04:41:27;98755.78;;;3.70;100.00
2785;BME280;57944;48.722;9.316;2024-02-21T04:43:58;98757.88;;;3.55;100.00
2785;BME280;57944;48.722;9.316;2024-02-21T04:46:28;98758.38;;;3.49;100.00
2785;BME280;57944;48.722;9.316;2024-02-21T04:48:59;98758.81;;;3.54;100.00
2785;BME280;57944;48.722;9.316;2024-02-21T04:51:29;98756.56;;;3.61;100.00
2785;BME280;57944;48.722;9.316;2024-02-21T04:54:02;98752.88;;;3.74;100.00
2785;BME280;57944;48.722;9.316;2024-02-21T04:56:35;98754.47;;;3.75;100.00
2785;BME280;57944;48.722;9.316;2024-02-21T04:59:06;98756.09;;;3.76;100.00
2785;BME280;57944;48.722;9.316;2024-02-21T05:01:36;98746.50;;;3.70;100.00
2785;BME280;57944;48.722;9.316;2024-02-21T05:04:07;98750.81;;;3.49;100.00
2785;BME280;57944;48.722;9.316;2024-02-21T05:06:38;98774.22;;;3.30;100.00
2785;BME280;57944;48.722;9.316;2024-02-21T05:09:10;98779.66;;;3.04;100.00
2785;BME280;57944;48.722;9.316;2024-02-21T05:11:43;98778.78;;;2.94;100.00
2785;BME280;57944;48.722;9.316;2024-02-21T05:14:14;98767.13;;;2.93;100.00
2785;BME280;57944;48.722;9.316;2024-02-21T05:16:45;98777.56;;;2.88;100.00
2785;BME280;57944;48.722;9.316;2024-02-21T05:19:15;98783.59;;;2.76;100.00
2785;BME280;57944;48.722;9.316;2024-02-21T05:21:46;98783.41;;;2.68;100.00
2785;BME280;57944;48.722;9.316;2024-02-21T05:24:17;98778.28;;;2.58;100.00
2785;BME280;57944;48.722;9.316;2024-02-21T05:26:50;98770.47;;;2.40;100.00
2785;BME280;57944;48.722;9.316;2024-02-21T05:29:21;98761.22;;;2.41;100.00
2785;BME280;57944;48.722;9.316;2024-02-21T05:31:56;98761.09;;;2.31;100.00
2785;BME280;57944;48.722;9.316;2024-02-21T05:34:27;98751.66;;;2.23;100.00
2785;BME280;57944;48.722;9.316;2024-02-21T05:36:58;98743.53;;;2.20;100.00
2785;BME280;57944;48.722;9.316;2024-02-21T05:39:29;98725.94;;;2.20;100.00
2785;BME280;57944;48.722;9.316;2024-02-21T05:42:02;98725.28;;;2.18;100.00
2785;BME280;57944;48.722;9.316;2024-02-21T05:44:32;98726.88;;;2.19;100.00
2785;BME280;57944;48.722;9.316;2024-02-21T05:47:04;98737.38;;;2.24;100.00
2785;BME280;57944;48.722;9.316;2024-02-21T05:49:37;98733.69;;;2.28;100.00
2785;BME280;57944;48.722;9.316;2024-02-21T05:52:08;98727.28;;;2.35;100.00
2785;BME280;57944;48.722;9.316;2024-02-21T05:54:39;98711.94;;;2.38;100.00
2785;BME280;57944;48.722;9.316;2024-02-21T05:57:12;98710.72;;;2.54;100.00
2785;BME280;57944;48.722;9.316;2024-02-21T05:59:43;98717.34;;;2.55;100.00
2785;BME280;57944;48.722;9.316;2024-02-21T06:02:13;98707.28;;;2.55;100.00
2785;BME280;57944;48.722;9.316;2024-02-21T06:04:44;98700.88;;;2.51;100.00
2785;BME280;57944;48.722;9.316;2024-02-21T06:07:15;98701.13;;;2.47;100.00
2785;BME280;57944;48.722;9.316;2024-02-21T06:09:45;98701.13;;;2.47;100.00
2785;BME280;57944;48.722;9.316;2024-02-21T06:12:19;98700.59;;;2.44;100.00
2785;BME280;57944;48.722;9.316;2024-02-21T06:14:49;98702.41;;;2.42;100.00
2785;BME280;57944;48.722;9.316;2024-02-21T06:17:20;98706.34;;;2.35;100.00
2785;BME280;57944;48.722;9.316;2024-02-21T06:19:50;98701.75;;;2.40;100.00
2785;BME280;57944;48.722;9.316;2024-02-21T06:22:21;98702.06;;;2.46;100.00
2785;BME280;57944;48.722;9.316;2024-02-21T06:24:52;98702.75;;;2.49;100.00
2785;BME280;57944;48.722;9.316;2024-02-21T06:27:25;98702.16;;;2.45;100.00
2785;BME280;57944;48.722;9.316;2024-02-21T06:29:56;98710.53;;;2.45;100.00
2785;BME280;57944;48.722;9.316;2024-02-21T06:32:27;98707.78;;;2.49;100.00
2785;BME280;57944;48.722;9.316;2024-02-21T06:34:57;98712.31;;;2.55;100.00
2785;BME280;57944;48.722;9.316;2024-02-21T06:37:29;98706.53;;;2.64;100.00
2785;BME280;57944;48.722;9.316;2024-02-21T06:40:00;98708.56;;;2.70;100.00
2785;BME280;57944;48.722;9.316;2024-02-21T06:42:34;98714.81;;;2.76;100.00
2785;BME280;57944;48.722;9.316;2024-02-21T06:45:05;98722.00;;;2.80;100.00
2785;BME280;57944;48.722;9.316;2024-02-21T06:47:36;98730.22;;;2.82;100.00
2785;BME280;57944;48.722;9.316;2024-02-21T06:50:08;98728.41;;;2.84;100.00
2785;BME280;57944;48.722;9.316;2024-02-21T06:52:39;98731.56;;;2.86;100.00
2785;BME280;57944;48.722;9.316;2024-02-21T06:55:09;98734.22;;;2.85;100.00
2785;BME280;57944;48.722;9.316;2024-02-21T06:57:43;98727.13;;;3.00;100.00
2785;BME280;57944;48.722;9.316;2024-02-21T07:00:15;98719.84;;;3.37;100.00
2785;BME280;57944;48.722;9.316;2024-02-21T07:02:45;98713.34;;;3.65;100.00
2785;BME280;57944;48.722;9.316;2024-02-21T07:05:16;98709.22;;;3.84;100.00
2785;BME280;57944;48.722;9.316;2024-02-21T07:07:47;98708.19;;;4.06;100.00
2785;BME280;57944;48.722;9.316;2024-02-21T07:10:18;98723.50;;;4.23;100.00
2785;BME280;57944;48.722;9.316;2024-02-21T07:12:51;98721.88;;;4.42;100.00
2785;BME280;57944;48.722;9.316;2024-02-21T07:15:22;98710.81;;;4.62;100.00
2785;BME280;57944;48.722;9.316;2024-02-21T07:17:54;98704.53;;;4.86;100.00
2785;BME280;57944;48.722;9.316;2024-02-21T07:20:25;98707.28;;;5.02;100.00
2785;BME280;57944;48.722;9.316;2024-02-21T07:22:56;98706.25;;;5.23;100.00
2785;BME280;57944;48.722;9.316;2024-02-21T07:25:27;98693.94;;;5.37;100.00
2785;BME280;57944;48.722;9.316;2024-02-21T07:28:00;98687.78;;;5.50;100.00
2785;BME280;57944;48.722;9.316;2024-02-21T07:30:31;98688.09;;;5.82;100.00
2785;BME280;57944;48.722;9.316;2024-02-21T07:33:01;98694.56;;;6.13;100.00
2785;BME280;57944;48.722;9.316;2024-02-21T07:35:32;98699.69;;;6.65;100.00
2785;BME280;57944;48.722;9.316;2024-02-21T07:38:05;98694.19;;;7.04;100.00
2785;BME280;57944;48.722;9.316;2024-02-21T07:40:36;98692.53;;;7.71;100.00
2785;BME280;57944;48.722;9.316;2024-02-21T07:43:09;98697.66;;;8.20;100.00
2785;BME280;57944;48.722;9.316;2024-02-21T07:45:40;98700.84;;;8.55;100.00
2785;BME280;57944;48.722;9.316;2024-02-21T07:48:10;98695.97;;;9.01;100.00
2785;BME280;57944;48.722;9.316;2024-02-21T07:50:41;98689.31;;;9.08;100.00
2785;BME280;57944;48.722;9.316;2024-02-21T07:53:15;98684.63;;;8.81;100.00
2785;BME280;57944;48.722;9.316;2024-02-21T07:55:46;98672.09;;;8.63;100.00
2785;BME280;57944;48.722;9.316;2024-02-21T07:58:19;98672.75;;;8.48;100.00
2785;BME280;57944;48.722;9.316;2024-02-21T08:00:50;98667.34;;;8.35;100.00
2785;BME280;57944;48.722;9.316;2024-02-21T08:03:21;98655.13;;;8.22;100.00
2785;BME280;57944;48.722;9.316;2024-02-21T08:05:53;98657.03;;;8.04;100.00
2785;BME280;57944;48.722;9.316;2024-02-21T08:08:24;98655.78;;;8.16;100.00
2785;BME280;57944;48.722;9.316;2024-02-21T08:10:54;98654.81;;;8.25;100.00
2785;BME280;57944;48.722;9.316;2024-02-21T08:13:28;98648.16;;;8.41;100.00
2785;BME280;57944;48.722;9.316;2024-02-21T08:15:59;98650.00;;;8.71;100.00
2785;BME280;57944;48.722;9.316;2024-02-21T08:18:29;98650.63;;;8.73;100.00
2785;BME280;57944;48.722;9.316;2024-02-21T08:21:04;98648.84;;;8.82;100.00
2785;BME280;57944;48.722;9.316;2024-02-21T08:23:34;98644.34;;;9.32;100.00
2785;BME280;57944;48.722;9.316;2024-02-21T08:26:05;98644.34;;;9.63;100.00
2785;BME280;57944;48.722;9.316;2024-02-21T08:28:38;98647.31;;;10.13;100.00
2785;BME280;57944;48.722;9.316;2024-02-21T08:31:09;98650.31;;;10.39;100.00
2785;BME280;57944;48.722;9.316;2024-02-21T08:33:40;98641.56;;;9.96;100.00
2785;BME280;57944;48.722;9.316;2024-02-21T08:36:17;98649.09;;;9.89;100.00
2785;BME280;57944;48.722;9.316;2024-02-21T08:38:49;98644.28;;;9.71;100.00
2785;BME280;57944;48.722;9.316;2024-02-21T08:41:20;98645.34;;;10.00;100.00
2785;BME280;57944;48.722;9.316;2024-02-21T08:44:11;98644.84;;;10.19;100.00
2785;BME280;57944;48.722;9.316;2024-02-21T08:46:42;98636.03;;;10.30;100.00
2785;BME280;57944;48.722;9.316;2024-02-21T08:49:12;98633.59;;;10.51;100.00
2785;BME280;57944;48.722;9.316;2024-02-21T08:51:43;98624.97;;;10.52;100.00
2785;BME280;57944;48.722;9.316;2024-02-21T08:54:14;98620.50;;;10.84;100.00
2785;BME280;57944;48.722;9.316;2024-02-21T08:56:43;98617.97;;;10.55;100.00
2785;BME280;57944;48.722;9.316;2024-02-21T08:59:15;98616.91;;;10.64;100.00
2785;BME280;57944;48.722;9.316;2024-02-21T09:01:46;98618.59;;;10.57;100.00
2785;BME280;57944;48.722;9.316;2024-02-21T09:04:17;98615.69;;;10.60;100.00
2785;BME280;57944;48.722;9.316;2024-02-21T09:06:48;98604.44;;;10.84;100.00
2785;BME280;57944;48.722;9.316;2024-02-21T09:09:20;98604.41;;;10.99;100.00
2785;BME280;57944;48.722;9.316;2024-02-21T09:11:55;98589.38;;;11.25;98.57
2785;BME280;57944;48.722;9.316;2024-02-21T09:14:28;98582.56;;;11.32;95.00
2785;BME280;57944;48.722;9.316;2024-02-21T09:16:59;98588.31;;;11.34;99.03
2785;BME280;57944;48.722;9.316;2024-02-21T09:19:30;98589.75;;;11.65;94.33
2785;BME280;57944;48.722;9.316;2024-02-21T09:22:00;98586.53;;;11.56;94.85
2785;BME280;57944;48.722;9.316;2024-02-21T09:24:31;98582.44;;;11.83;94.73
2785;BME280;57944;48.722;9.316;2024-02-21T09:27:01;98580.34;;;12.15;92.06
2785;BME280;57944;48.722;9.316;2024-02-21T09:29:36;98579.69;;;12.35;88.20
2785;BME280;57944;48.722;9.316;2024-02-21T09:32:07;98570.88;;;12.44;85.94
2785;BME280;57944;48.722;9.316;2024-02-21T09:34:38;98571.78;;;12.29;84.16
2785;BME280;57944;48.722;9.316;2024-02-21T09:37:08;98565.28;;;12.68;77.41
2785;BME280;57944;48.722;9.316;2024-02-21T09:39:39;98561.84;;;13.03;72.91
2785;BME280;57944;48.722;9.316;2024-02-21T09:42:11;98566.22;;;13.15;74.67
2785;BME280;57944;48.722;9.316;2024-02-21T09:44:46;98555.66;;;13.32;68.96
2785;BME280;57944;48.722;9.316;2024-02-21T09:47:19;98549.56;;;12.71;71.32
2785;BME280;57944;48.722;9.316;2024-02-21T09:49:53;98553.78;;;12.99;73.86
2785;BME280;57944;48.722;9.316;2024-02-21T09:52:25;98555.66;;;13.32;70.33
2785;BME280;57944;48.722;9.316;2024-02-21T09:54:59;98545.63;;;13.63;65.53
2785;BME280;57944;48.722;9.316;2024-02-21T09:57:32;98552.69;;;13.81;63.42
2785;BME280;57944;48.722;9.316;2024-02-21T10:00:07;98540.47;;;13.97;61.49
2785;BME280;57944;48.722;9.316;2024-02-21T10:02:40;98537.94;;;13.63;63.77
2785;BME280;57944;48.722;9.316;2024-02-21T10:05:11;98537.25;;;12.47;70.57
2785;BME280;57944;48.722;9.316;2024-02-21T10:07:42;98547.38;;;13.30;64.00
2785;BME280;57944;48.722;9.316;2024-02-21T10:10:13;98530.84;;;13.32;63.59
2785;BME280;57944;48.722;9.316;2024-02-21T10:12:50;98535.50;;;13.15;63.83
2785;BME280;57944;48.722;9.316;2024-02-21T10:15:25;98532.34;;;14.06;61.38
2785;BME280;57944;48.722;9.316;2024-02-21T10:17:59;98519.66;;;14.31;58.40
2785;BME280;57944;48.722;9.316;2024-02-21T10:20:31;98525.81;;;14.82;56.59
2785;BME280;57944;48.722;9.316;2024-02-21T10:23:02;98517.38;;;14.03;59.58
2785;BME280;57944;48.722;9.316;2024-02-21T10:25:36;98510.66;;;14.09;59.19
2785;BME280;57944;48.722;9.316;2024-02-21T10:28:13;98505.00;;;14.59;57.50
2785;BME280;57944;48.722;9.316;2024-02-21T10:30:52;98492.81;;;15.17;56.84
2785;BME280;57944;48.722;9.316;2024-02-21T10:33:23;98486.50;;;15.89;52.37
2785;BME280;57944;48.722;9.316;2024-02-21T10:36:07;98491.28;;;15.85;52.48
2785;BME280;57944;48.722;9.316;2024-02-21T10:38:38;98485.84;;;15.00;54.24
2785;BME280;57944;48.722;9.316;2024-02-21T10:41:14;98487.50;;;15.88;52.45
2785;BME280;57944;48.722;9.316;2024-02-21T10:43:49;98483.22;;;15.31;51.14
2785;BME280;57944;48.722;9.316;2024-02-21T10:46:24;98481.50;;;16.12;50.58
2785;BME280;57944;48.722;9.316;2024-02-21T10:49:04;98478.25;;;16.05;51.08
2785;BME280;57944;48.722;9.316;2024-02-21T10:51:43;98472.38;;;15.98;49.98
2785;BME280;57944;48.722;9.316;2024-02-21T10:54:34;98474.44;;;16.26;49.56
2785;BME280;57944;48.722;9.316;2024-02-21T10:57:08;98457.09;;;16.03;49.74
2785;BME280;57944;48.722;9.316;2024-02-21T10:59:40;98454.38;;;15.98;49.36
2785;BME280;57944;48.722;9.316;2024-02-21T11:02:14;98451.09;;;15.72;50.24
2785;BME280;57944;48.722;9.316;2024-02-21T11:04:45;98446.66;;;15.54;51.19
2785;BME280;57944;48.722;9.316;2024-02-21T11:07:17;98440.50;;;15.37;50.60
2785;BME280;57944;48.722;9.316;2024-02-21T11:09:52;98434.25;;;15.08;52.03
2785;BME280;57944;48.722;9.316;2024-02-21T11:12:24;98426.25;;;15.41;51.07
2785;BME280;57944;48.722;9.316;2024-02-21T11:15:04;98422.69;;;15.85;49.86
2785;BME280;57944;48.722;9.316;2024-02-21T11:17:38;98413.72;;;16.06;49.51
2785;BME280;57944;48.722;9.316;2024-02-21T11:20:17;98408.81;;;16.35;48.79
2785;BME280;57944;48.722;9.316;2024-02-21T11:22:48;98399.22;;;16.42;48.53
2785;BME280;57944;48.722;9.316;2024-02-21T11:25:22;98392.19;;;16.80;47.45
2785;BME280;57944;48.722;9.316;2024-02-21T11:28:00;98390.41;;;16.92;47.10
2785;BME280;57944;48.722;9.316;2024-02-21T11:30:31;98386.81;;;16.93;45.91
2785;BME280;57944;48.722;9.316;2024-02-21T11:33:07;98372.72;;;17.31;45.16
2785;BME280;57944;48.722;9.316;2024-02-21T11:35:38;98368.00;;;17.51;44.53
2785;BME280;57944;48.722;9.316;2024-02-21T11:38:09;98360.59;;;17.43;44.19
2785;BME280;57944;48.722;9.316;2024-02-21T11:40:44;98360.66;;;17.19;45.08
2785;BME280;57944;48.722;9.316;2024-02-21T11:43:15;98350.31;;;17.43;43.84
2785;BME280;57944;48.722;9.316;2024-02-21T11:45:46;98351.28;;;16.71;43.42
2785;BME280;57944;48.722;9.316;2024-02-21T11:48:20;98336.75;;;15.93;43.82
2785;BME280;57944;48.722;9.316;2024-02-21T11:50:54;98338.56;;;16.77;44.07
2785;BME280;57944;48.722;9.316;2024-02-21T11:53:25;98333.38;;;16.65;43.71
2785;BME280;57944;48.722;9.316;2024-02-21T11:56:02;98321.88;;;16.67;43.29
2785;BME280;57944;48.722;9.316;2024-02-21T11:58:33;98316.38;;;16.75;41.96
2785;BME280;57944;48.722;9.316;2024-02-21T12:01:04;98316.44;;;16.34;44.17
2785;BME280;57944;48.722;9.316;2024-02-21T12:03:37;98315.13;;;16.54;43.32
2785;BME280;57944;48.722;9.316;2024-02-21T12:06:09;98302.75;;;16.21;43.76
2785;BME280;57944;48.722;9.316;2024-02-21T12:08:44;98300.50;;;16.55;43.71
2785;BME280;57944;48.722;9.316;2024-02-21T12:11:20;98300.81;;;16.70;43.83
2785;BME280;57944;48.722;9.316;2024-02-21T12:14:01;98296.25;;;16.72;42.82
2785;BME280;57944;48.722;9.316;2024-02-21T12:16:33;98286.84;;;15.52;44.42
2785;BME280;57944;48.722;9.316;2024-02-21T12:19:07;98287.72;;;16.37;44.16
2785;BME280;57944;48.722;9.316;2024-02-21T12:21:39;98280.94;;;16.89;41.52
2785;BME280;57944;48.722;9.316;2024-02-21T12:24:14;98273.97;;;16.66;41.47
2785;BME280;57944;48.722;9.316;2024-02-21T12:26:44;98265.66;;;16.41;41.22
2785;BME280;57944;48.722;9.316;2024-02-21T12:29:15;98259.88;;;16.57;42.45
2785;BME280;57944;48.722;9.316;2024-02-21T12:31:46;98259.41;;;16.60;41.80
2785;BME280;57944;48.722;9.316;2024-02-21T12:34:19;98253.94;;;16.57;42.22
2785;BME280;57944;48.722;9.316;2024-02-21T12:37:05;98249.81;;;16.44;41.21
2785;BME280;57944;48.722;9.316;2024-02-21T12:39:36;98249.91;;;16.72;40.45
2785;BME280;57944;48.722;9.316;2024-02-21T12:42:06;98240.50;;;17.02;40.75
2785;BME280;57944;48.722;9.316;2024-02-21T12:44:39;98234.03;;;16.52;40.14
2785;BME280;57944;48.722;9.316;2024-02-21T12:47:10;98228.88;;;16.28;40.55
2785;BME280;57944;48.722;9.316;2024-02-21T12:49:43;98220.28;;;16.82;39.88
2785;BME280;57944;48.722;9.316;2024-02-21T12:52:14;98214.09;;;16.24;40.50
2785;BME280;57944;48.722;9.316;2024-02-21T12:54:45;98208.78;;;15.53;41.85
2785;BME280;57944;48.722;9.316;2024-02-21T12:57:16;98200.13;;;16.08;41.51
2785;BME280;57944;48.722;9.316;2024-02-21T12:59:46;98196.09;;;16.12;40.90
2785;BME280;57944;48.722;9.316;2024-02-21T13:02:17;98186.38;;;16.02;42.09
2785;BME280;57944;48.722;9.316;2024-02-21T13:04:51;98181.00;;;16.39;40.57
2785;BME280;57944;48.722;9.316;2024-02-21T13:07:21;98178.31;;;16.81;40.24
2785;BME280;57944;48.722;9.316;2024-02-21T13:09:52;98173.91;;;17.05;39.53
2785;BME280;57944;48.722;9.316;2024-02-21T13:12:23;98160.66;;;16.38;40.11
2785;BME280;57944;48.722;9.316;2024-02-21T13:14:53;98162.78;;;15.63;40.66
2785;BME280;57944;48.722;9.316;2024-02-21T13:17:24;98151.56;;;15.76;40.88
2785;BME280;57944;48.722;9.316;2024-02-21T13:20:01;98145.56;;;15.82;41.34
2785;BME280;57944;48.722;9.316;2024-02-21T13:22:31;98147.13;;;16.07;41.08
2785;BME280;57944;48.722;9.316;2024-02-21T13:25:02;98144.09;;;16.45;40.60
2785;BME280;57944;48.722;9.316;2024-02-21T13:27:34;98142.63;;;16.61;40.73
2785;BME280;57944;48.722;9.316;2024-02-21T13:30:06;98126.69;;;16.76;40.42
2785;BME280;57944;48.722;9.316;2024-02-21T13:32:37;98126.28;;;16.79;40.21
2785;BME280;57944;48.722;9.316;2024-02-21T13:35:11;98127.72;;;16.87;40.17